Time;durP1;ratioP1;P1;durP2;ratioP2;P2;SDS_P1;SDS_P2;PMS_P1;PMS_P2;Temp;Humidity;BMP_temperature;BMP_pressure;BME280_temperature;BME280_humidity;BME280_pressure;Samples;Min_cycle;Max_cycle;Signal;HPM_P1;HPM_P2
2021/11/23 00:00:29;;;;;;;1.15;0.95;;;;;;;2.68;100.00;102512.81;6209759;28;20050;-79
2021/11/23 00:03:30;;;;;;;4.05;1.58;;;;;;;2.70;100.00;102531.84;6208411;28;20054;-77
2021/11/23 00:06:34;;;;;;;1.92;1.42;;;;;;;2.72;100.00;102524.91;6203412;28;20142;-77
2021/11/23 00:09:35;;;;;;;4.65;1.10;;;;;;;2.77;100.00;102519.75;6208688;28;20043;-79
2021/11/23 00:12:38;;;;;;;3.70;1.38;;;;;;;2.81;100.00;102526.72;6223793;28;20049;-79
2021/11/23 00:15:40;;;;;;;2.30;1.30;;;;;;;2.80;100.00;102535.38;6227118;28;20698;-79
2021/11/23 00:18:42;;;;;;;1.33;1.20;;;;;;;2.83;100.00;102531.94;6226835;28;20065;-78
2021/11/23 00:21:43;;;;;;;2.42;1.42;;;;;;;2.86;100.00;102529.34;6230576;28;20049;-79
2021/11/23 00:24:45;;;;;;;1.85;1.35;;;;;;;2.87;100.00;102534.56;6230417;28;20049;-79
2021/11/23 00:27:48;;;;;;;1.38;1.02;;;;;;;2.92;100.00;102545.84;6232217;28;20485;-79
2021/11/23 00:30:49;;;;;;;2.40;1.33;;;;;;;2.97;100.00;102545.88;6229808;28;20046;-79
2021/11/23 00:33:50;;;;;;;2.13;0.73;;;;;;;3.01;100.00;102545.06;6228861;28;20525;-79
2021/11/23 00:36:52;;;;;;;2.08;1.67;;;;;;;3.04;100.00;102530.38;6232465;28;20410;-79
2021/11/23 00:39:54;;;;;;;4.45;1.13;;;;;;;3.11;100.00;102531.25;6233178;28;20157;-79
2021/11/23 00:43:03;;;;;;;3.75;1.70;;;;;;;3.13;100.00;102524.34;6233678;28;20045;-79
2021/11/23 00:46:04;;;;;;;9.07;1.23;;;;;;;3.18;100.00;102527.84;6232978;28;20058;-79
2021/11/23 00:49:05;;;;;;;1.38;1.00;;;;;;;3.21;100.00;102521.78;6233622;28;20057;-79
2021/11/23 00:52:07;;;;;;;2.22;1.58;;;;;;;3.22;100.00;102526.13;6234104;28;20054;-79
2021/11/23 00:55:09;;;;;;;1.23;0.90;;;;;;;3.23;100.00;102531.34;6231131;28;20500;-79
2021/11/23 00:58:12;;;;;;;2.42;1.33;;;;;;;3.27;100.00;102521.81;6234418;28;20057;-79
2021/11/23 01:01:14;;;;;;;3.42;1.00;;;;;;;3.29;100.00;102526.19;6231183;28;20493;-79
2021/11/23 01:04:15;;;;;;;2.60;1.35;;;;;;;3.32;100.00;102525.34;6233844;28;20050;-79
2021/11/23 01:07:16;;;;;;;1.15;1.05;;;;;;;3.34;100.00;102507.16;6232031;28;20049;-79
2021/11/23 01:10:18;;;;;;;1.77;1.20;;;;;;;3.38;100.00;102506.31;6230689;28;20137;-79
2021/11/23 01:13:21;;;;;;;1.10;1.00;;;;;;;3.43;100.00;102496.78;6234081;28;20057;-79
2021/11/23 01:16:22;;;;;;;2.33;1.40;;;;;;;3.43;100.00;102500.25;6232148;28;20053;-79
2021/11/23 01:19:25;;;;;;;1.52;0.80;;;;;;;3.42;100.00;102498.53;6230453;28;20045;-78
2021/11/23 01:22:26;;;;;;;1.25;1.08;;;;;;;3.47;100.00;102493.34;6230062;28;20056;-78
2021/11/23 01:25:27;;;;;;;1.88;1.35;;;;;;;3.47;100.00;102493.34;6230564;28;20061;-79
2021/11/23 01:28:30;;;;;;;1.45;1.00;;;;;;;3.50;100.00;102490.78;6228711;28;20425;-79
2021/11/23 01:31:32;;;;;;;1.42;1.02;;;;;;;3.52;100.00;102495.09;6227240;28;20397;-79
2021/11/23 01:34:33;;;;;;;1.20;0.98;;;;;;;3.52;100.00;102487.31;6221032;28;20513;-79
2021/11/23 01:37:34;;;;;;;1.85;0.93;;;;;;;3.58;100.00;102488.19;6231041;28;20050;-79
2021/11/23 01:40:36;;;;;;;1.55;0.93;;;;;;;3.61;100.00;102480.41;6231309;28;20057;-79
2021/11/23 01:43:39;;;;;;;3.05;1.25;;;;;;;3.59;100.00;102488.22;6229349;28;20057;-78
2021/11/23 01:46:40;;;;;;;2.67;1.08;;;;;;;3.56;100.00;102490.78;6229026;28;20064;-78
2021/11/23 01:49:42;;;;;;;1.58;1.00;;;;;;;3.55;100.00;102492.53;6226896;28;20053;-76
2021/11/23 01:52:44;;;;;;;2.03;1.00;;;;;;;3.55;100.00;102489.06;6227448;28;20061;-76
2021/11/23 01:55:46;;;;;;;2.33;1.42;;;;;;;3.56;100.00;102490.78;6225875;28;20050;-78
2021/11/23 01:58:49;;;;;;;1.52;1.10;;;;;;;3.53;100.00;102494.22;6226552;28;20057;-78
2021/11/23 02:01:51;;;;;;;3.65;1.05;;;;;;;3.53;100.00;102486.44;6226505;28;20057;-76
2021/11/23 02:04:52;;;;;;;1.55;1.17;;;;;;;3.54;100.00;102495.09;6227531;28;20057;-78
2021/11/23 02:07:54;;;;;;;2.28;1.02;;;;;;;3.54;100.00;102492.50;6226761;28;20056;-78
2021/11/23 02:10:55;;;;;;;1.50;0.88;;;;;;;3.54;100.00;102492.50;6226644;28;20143;-78
2021/11/23 02:13:59;;;;;;;1.45;1.23;;;;;;;3.52;100.00;102489.03;6226989;28;20053;-78
2021/11/23 02:17:00;;;;;;;7.97;1.40;;;;;;;3.52;100.00;102492.50;6227795;28;20049;-79
2021/11/23 02:20:03;;;;;;;1.77;1.30;;;;;;;3.50;100.00;102488.19;6227007;28;20285;-76
2021/11/23 02:23:05;;;;;;;1.75;1.38;;;;;;;3.51;100.00;102487.31;6226928;28;20129;-78
2021/11/23 02:26:06;;;;;;;1.75;1.23;;;;;;;3.52;100.00;102482.09;6227480;28;20056;-78
2021/11/23 02:29:08;;;;;;;5.40;1.42;;;;;;;3.51;100.00;102479.50;6225871;28;20054;-78
2021/11/23 02:32:10;;;;;;;2.25;1.35;;;;;;;3.49;100.00;102473.41;6226838;28;20046;-78
2021/11/23 02:35:13;;;;;;;1.42;1.33;;;;;;;3.51;100.00;102479.50;6224919;28;20485;-78
2021/11/23 02:38:17;;;;;;;2.28;1.40;;;;;;;3.56;100.00;102476.06;6222492;28;20049;-78
2021/11/23 02:41:19;;;;;;;2.55;1.80;;;;;;;3.56;100.00;102477.78;6222347;28;20425;-78
2021/11/23 02:44:20;;;;;;;3.08;1.42;;;;;;;3.56;100.00;102464.78;6223356;28;20057;-78
2021/11/23 02:47:21;;;;;;;3.80;1.50;;;;;;;3.60;100.00;102461.34;6222852;28;20054;-78
2021/11/23 02:50:26;;;;;;;3.28;1.70;;;;;;;3.63;100.00;102473.47;6226496;28;20508;-78
2021/11/23 02:53:27;;;;;;;3.58;1.48;;;;;;;3.59;100.00;102475.22;6227967;28;20050;-78
2021/11/23 02:56:29;;;;;;;3.72;1.88;;;;;;;3.58;100.00;102464.78;6228064;28;20053;-78
2021/11/23 02:59:31;;;;;;;2.80;1.15;;;;;;;3.61;100.00;102460.47;6226818;28;20140;-78
2021/11/23 03:02:32;;;;;;;2.53;1.52;;;;;;;3.61;100.00;102462.22;6227845;28;20053;-78
2021/11/23 03:05:35;;;;;;;5.30;1.48;;;;;;;3.61;100.00;102464.81;6227378;28;20053;-75
2021/11/23 03:08:36;;;;;;;2.17;1.60;;;;;;;3.61;100.00;102449.22;6227331;28;20052;-75
2021/11/23 03:11:38;;;;;;;2.42;1.52;;;;;;;3.64;100.00;102447.50;6226102;28;20428;-75
2021/11/23 03:14:39;;;;;;;1.38;1.15;;;;;;;3.64;100.00;102450.09;6227025;28;20424;-78
2021/11/23 03:17:41;;;;;;;3.40;1.60;;;;;;;3.69;100.00;102461.38;6226899;28;20057;-76
2021/11/23 03:20:45;;;;;;;6.70;1.67;;;;;;;3.71;100.00;102450.97;6226801;28;20046;-78
2021/11/23 03:23:48;;;;;;;2.55;1.63;;;;;;;3.74;100.00;102457.03;6226239;28;20061;-75
2021/11/23 03:26:49;;;;;;;2.58;1.70;;;;;;;3.75;100.00;102444.91;6204998;28;20050;-76
2021/11/23 03:29:51;;;;;;;1.95;1.42;;;;;;;3.75;100.00;102444.91;6222381;28;20057;-75
2021/11/23 03:32:55;;;;;;;3.38;1.63;;;;;;;3.76;100.00;102451.84;6219169;28;20047;-76
2021/11/23 03:35:58;;;;;;;1.42;1.17;;;;;;;3.79;100.00;102444.91;6223998;28;20054;-78
2021/11/23 03:38:59;;;;;;;2.10;1.58;;;;;;;3.86;100.00;102457.94;6225735;28;20420;-75
2021/11/23 03:42:00;;;;;;;3.60;2.17;;;;;;;3.87;100.00;102454.47;6225863;28;20041;-76
2021/11/23 03:45:03;;;;;;;1.50;1.17;;;;;;;3.91;100.00;102453.63;6226376;28;20061;-77
2021/11/23 03:48:05;;;;;;;1.83;1.60;;;;;;;3.94;100.00;102451.00;6225791;28;20412;-76
2021/11/23 03:51:08;;;;;;;2.35;1.40;;;;;;;3.94;100.00;102445.81;6225884;28;20147;-77
2021/11/23 03:54:09;;;;;;;1.45;1.30;;;;;;;3.97;100.00;102453.63;6225101;28;20433;-77
2021/11/23 03:57:10;;;;;;;3.00;1.65;;;;;;;4.00;100.00;102456.25;6201427;28;20425;-76
2021/11/23 04:00:14;;;;;;;2.08;1.60;;;;;;;4.02;100.00;102455.34;6200232;28;20046;-76
2021/11/23 04:03:15;;;;;;;3.25;1.52;;;;;;;4.09;100.00;102453.66;6202785;28;20053;-78
2021/11/23 04:06:18;;;;;;;3.60;1.30;;;;;;;4.12;100.00;102448.44;6202328;28;20053;-76
2021/11/23 04:09:19;;;;;;;2.30;1.73;;;;;;;4.18;100.00;102444.97;6202077;28;20480;-78
2021/11/23 04:12:21;;;;;;;2.72;1.75;;;;;;;4.18;100.00;102440.66;6202495;28;20042;-78
2021/11/23 04:15:22;;;;;;;3.05;1.90;;;;;;;4.21;100.00;102435.41;6203250;28;20073;-78
2021/11/23 04:18:23;;;;;;;2.17;1.88;;;;;;;4.24;100.00;102440.63;6203014;28;20046;-78
2021/11/23 04:21:26;;;;;;;6.15;1.95;;;;;;;4.27;100.00;102439.75;6201256;28;20054;-78
2021/11/23 04:24:28;;;;;;;3.17;1.48;;;;;;;4.31;100.00;102438.88;6202865;28;20050;-78
2021/11/23 04:27:29;;;;;;;3.85;2.33;;;;;;;4.32;100.00;102431.09;6201339;28;20094;-77
2021/11/23 04:30:30;;;;;;;2.15;1.73;;;;;;;4.33;100.00;102430.22;6201450;28;20055;-78
2021/11/23 04:33:32;;;;;;;4.03;1.88;;;;;;;4.39;100.00;102436.28;6202006;28;20054;-78
2021/11/23 04:36:35;;;;;;;6.50;3.03;;;;;;;4.41;100.00;102437.19;6201716;28;20054;-78
2021/11/23 04:39:36;;;;;;;3.30;1.92;;;;;;;4.42;100.00;102441.50;6201989;28;20101;-78
2021/11/23 04:42:38;;;;;;;2.42;1.80;;;;;;;4.45;100.00;102431.97;6201749;28;20417;-78
2021/11/23 04:45:40;;;;;;;4.10;2.45;;;;;;;4.46;100.00;102441.50;6202308;28;20046;-78
2021/11/23 04:48:42;;;;;;;3.83;2.50;;;;;;;4.48;100.00;102437.16;6225758;28;20053;-78
2021/11/23 04:51:44;;;;;;;5.50;2.60;;;;;;;4.53;100.00;102426.72;6225032;28;20046;-78
2021/11/23 04:54:45;;;;;;;3.63;2.25;;;;;;;4.55;100.00;102427.63;6226627;28;20053;-77
2021/11/23 04:57:47;;;;;;;4.38;2.50;;;;;;;4.58;100.00;102425.84;6226457;28;20054;-78
2021/11/23 05:00:49;;;;;;;5.72;3.33;;;;;;;4.67;100.00;102422.38;6225776;28;20053;-78
2021/11/23 05:03:50;;;;;;;4.43;2.97;;;;;;;4.72;100.00;102435.38;6225874;28;20061;-78
2021/11/23 05:06:53;;;;;;;4.65;2.65;;;;;;;4.70;100.00;102426.72;6225508;28;20049;-78
2021/11/23 05:09:54;;;;;;;8.35;3.92;;;;;;;4.76;100.00;102429.28;6226297;28;20414;-78
2021/11/23 05:12:56;;;;;;;7.32;3.33;;;;;;;4.79;100.00;102434.50;6224664;28;20053;-78
2021/11/23 05:15:57;;;;;;;6.80;4.18;;;;;;;4.78;100.00;102422.38;6223993;28;20553;-78
2021/11/23 05:18:58;;;;;;;8.45;3.92;;;;;;;4.79;100.00;102426.69;6226049;28;20058;-78
2021/11/23 05:22:02;;;;;;;5.75;3.28;;;;;;;4.81;100.00;102432.75;6225970;28;20046;-78
2021/11/23 05:25:04;;;;;;;8.27;3.85;;;;;;;4.93;100.00;102432.72;6226188;28;20049;-78
2021/11/23 05:28:06;;;;;;;12.05;4.45;;;;;;;4.87;100.00;102424.94;6224858;28;20042;-78
2021/11/23 05:31:07;;;;;;;7.03;3.97;;;;;;;4.92;100.00;102440.56;6224199;28;20490;-78
2021/11/23 05:34:08;;;;;;;7.10;3.70;;;;;;;4.89;100.00;102440.56;6217317;28;20049;-78
2021/11/23 05:37:12;;;;;;;6.40;2.90;;;;;;;4.88;100.00;102441.44;6226290;28;20054;-78
2021/11/23 05:40:13;;;;;;;7.85;3.03;;;;;;;4.95;100.00;102444.03;6225703;28;20521;-78
2021/11/23 05:43:16;;;;;;;5.18;3.53;;;;;;;4.97;100.00;102444.00;6226729;28;20608;-78
2021/11/23 05:46:17;;;;;;;6.65;4.10;;;;;;;4.98;100.00;102446.59;6225039;28;20069;-78
2021/11/23 05:49:18;;;;;;;9.02;3.58;;;;;;;4.94;100.00;102452.69;6227205;28;20057;-78
2021/11/23 05:52:21;;;;;;;5.47;2.75;;;;;;;4.94;100.00;102447.47;6226382;28;20497;-78
2021/11/23 05:55:22;;;;;;;8.20;2.67;;;;;;;4.98;100.00;102450.94;6225895;28;20050;-78
2021/11/23 05:58:24;;;;;;;5.20;3.33;;;;;;;4.97;100.00;102457.03;6226139;28;20432;-78
2021/11/23 06:01:25;;;;;;;9.32;3.67;;;;;;;4.97;100.00;102463.13;6230040;28;20046;-77
2021/11/23 06:04:26;;;;;;;5.82;3.65;;;;;;;5.01;100.00;102454.44;6230986;28;20421;-78
2021/11/23 06:07:29;;;;;;;10.07;3.83;;;;;;;5.00;100.00;102452.69;6250825;28;20030;-80
2021/11/23 06:10:31;;;;;;;7.43;3.85;;;;;;;5.00;100.00;102460.50;6249788;28;20050;-77
2021/11/23 06:13:32;;;;;;;12.68;4.38;;;;;;;5.04;100.00;102456.13;6223337;28;20049;-78
2021/11/23 06:16:36;;;;;;;8.77;4.53;;;;;;;5.04;100.00;102461.34;6220162;28;20540;-78
2021/11/23 06:19:37;;;;;;;10.98;4.80;;;;;;;5.06;100.00;102460.47;6199337;28;20050;-79
2021/11/23 06:22:40;;;;;;;8.45;3.70;;;;;;;5.07;100.00;102464.81;6199580;28;20046;-78
2021/11/23 06:25:42;;;;;;;11.45;4.38;;;;;;;5.08;100.00;102458.72;6199180;28;20421;-78
2021/11/23 06:28:43;;;;;;;7.45;3.72;;;;;;;5.13;100.00;102463.06;6199190;28;20054;-78
2021/11/23 06:31:45;;;;;;;7.40;4.53;;;;;;;5.11;100.00;102467.44;6198247;28;20420;-78
2021/11/23 06:34:46;;;;;;;7.95;3.85;;;;;;;5.11;100.00;102467.44;6199703;28;20054;-78
2021/11/23 06:37:49;;;;;;;9.18;3.75;;;;;;;5.09;100.00;102472.66;6215673;28;20054;-78
2021/11/23 06:40:50;;;;;;;6.40;4.25;;;;;;;5.16;100.00;102470.88;6215837;28;20049;-79
2021/11/23 06:43:51;;;;;;;9.18;3.65;;;;;;;5.13;100.00;102474.34;6215539;28;20409;-78
2021/11/23 06:46:53;;;;;;;7.30;3.65;;;;;;;5.14;100.00;102473.50;6223425;28;20062;-78
2021/11/23 06:49:54;;;;;;;7.43;4.13;;;;;;;5.16;100.00;102473.47;6222931;28;20050;-76
2021/11/23 06:52:57;;;;;;;8.93;4.40;;;;;;;5.20;100.00;102486.50;6215269;28;20049;-78
2021/11/23 06:55:58;;;;;;;7.05;4.10;;;;;;;5.24;100.00;102479.56;6217031;28;20056;-78
2021/11/23 06:59:01;;;;;;;10.43;4.20;;;;;;;5.20;100.00;102483.91;6224466;28;20053;-78
2021/11/23 07:02:02;;;;;;;7.45;3.97;;;;;;;5.21;100.00;102488.22;6223805;28;20413;-78
2021/11/23 07:05:04;;;;;;;7.22;3.58;;;;;;;5.30;100.00;102506.44;6223873;28;20053;-78
2021/11/23 07:08:07;;;;;;;8.25;4.00;;;;;;;5.24;100.00;102509.09;6225201;28;20085;-78
2021/11/23 07:11:08;;;;;;;14.32;4.05;;;;;;;5.27;100.00;102509.09;6226039;28;20052;-78
2021/11/23 07:14:11;;;;;;;9.77;3.63;;;;;;;5.34;100.00;102508.16;6225450;28;20049;-78
2021/11/23 07:17:13;;;;;;;7.05;3.88;;;;;;;5.34;100.00;102520.34;6226477;28;20061;-78
2021/11/23 07:20:14;;;;;;;9.45;4.05;;;;;;;5.32;100.00;102519.50;6225247;28;20058;-77
2021/11/23 07:23:17;;;;;;;8.75;3.90;;;;;;;5.37;100.00;102520.34;6226907;28;20042;-79
2021/11/23 07:26:19;;;;;;;9.25;4.00;;;;;;;5.43;100.00;102527.28;6225508;28;20526;-78
2021/11/23 07:29:20;;;;;;;7.32;3.85;;;;;;;5.45;100.00;102520.28;6226480;28;20046;-79
2021/11/23 07:32:22;;;;;;;10.43;4.07;;;;;;;5.46;100.00;102522.06;6225464;28;20417;-78
2021/11/23 07:35:23;;;;;;;9.10;4.32;;;;;;;5.50;100.00;102521.19;6227353;28;20050;-78
2021/11/23 07:38:26;;;;;;;7.93;3.53;;;;;;;5.56;100.00;102522.00;6231055;28;20054;-78
2021/11/23 07:41:27;;;;;;;8.13;3.22;;;;;;;5.55;100.00;102522.88;6231723;28;20058;-78
2021/11/23 07:44:29;;;;;;;9.18;4.55;;;;;;;5.57;100.00;102520.25;6231133;28;20050;-79
2021/11/23 07:47:30;;;;;;;8.43;4.20;;;;;;;5.62;100.00;102522.84;6213026;28;20046;-79
2021/11/23 07:50:33;;;;;;;10.18;4.70;;;;;;;5.59;100.00;102529.81;6206049;28;20050;-78
2021/11/23 07:53:35;;;;;;;10.98;4.63;;;;;;;5.62;100.00;102522.84;6205831;28;20061;-78
2021/11/23 07:56:37;;;;;;;11.32;5.03;;;;;;;5.66;100.00;102533.25;6205568;28;20077;-78
2021/11/23 07:59:38;;;;;;;12.65;4.25;;;;;;;5.66;100.00;102541.09;6206169;28;20061;-78
2021/11/23 08:02:40;;;;;;;10.40;4.40;;;;;;;5.67;100.00;102545.41;6206407;28;20050;-79
2021/11/23 08:05:41;;;;;;;10.77;5.07;;;;;;;5.69;100.00;102537.63;6205483;28;20053;-78
2021/11/23 08:08:44;;;;;;;9.85;4.75;;;;;;;5.75;100.00;102534.97;6203812;28;20501;-78
2021/11/23 08:11:45;;;;;;;10.00;5.03;;;;;;;5.75;100.00;102542.78;6206215;28;20047;-79
2021/11/23 08:14:47;;;;;;;8.98;4.80;;;;;;;5.79;100.00;102534.06;6205399;28;20053;-79
2021/11/23 08:17:49;;;;;;;8.80;4.15;;;;;;;5.78;100.00;102535.81;6229013;28;20489;-79
2021/11/23 08:20:50;;;;;;;11.05;4.93;;;;;;;5.84;100.00;102533.19;6231184;28;20057;-79
2021/11/23 08:23:53;;;;;;;13.35;4.85;;;;;;;5.85;100.00;102536.66;6232161;28;20057;-78
2021/11/23 08:26:56;;;;;;;13.90;4.15;;;;;;;5.83;100.00;102541.03;6230213;28;20053;-79
2021/11/23 08:29:59;;;;;;;13.43;4.68;;;;;;;5.85;100.00;102542.72;6229572;28;20058;-78
2021/11/23 08:33:00;;;;;;;11.60;4.78;;;;;;;5.88;100.00;102551.44;6229563;28;20077;-78
2021/11/23 08:36:02;;;;;;;7.53;4.13;;;;;;;5.84;100.00;102538.41;6230697;28;20053;-78
2021/11/23 08:39:05;;;;;;;10.75;4.47;;;;;;;5.86;100.00;102541.00;6229820;28;20058;-78
2021/11/23 08:42:07;;;;;;;10.98;4.78;;;;;;;5.92;100.00;102548.84;6230855;28;20100;-78
2021/11/23 08:45:09;;;;;;;9.65;5.13;;;;;;;5.95;100.00;102548.84;6229372;28;20054;-78
2021/11/23 08:48:10;;;;;;;14.70;5.85;;;;;;;5.95;100.00;102560.97;6229068;28;20061;-78
2021/11/23 08:51:16;;;;;;;9.98;4.32;;;;;;;6.00;100.00;102554.03;6230751;28;20050;-79
2021/11/23 08:54:19;;;;;;;11.05;4.28;;;;;;;6.06;100.00;102559.19;6231147;28;20100;-79
2021/11/23 08:57:20;;;;;;;14.00;5.93;;;;;;;6.09;100.00;102557.44;6230947;28;20081;-78
2021/11/23 09:00:22;;;;;;;12.18;5.50;;;;;;;6.12;100.00;102560.91;6228144;28;20065;-78
2021/11/23 09:03:24;;;;;;;12.05;4.22;;;;;;;6.19;100.00;102568.69;6230516;28;20053;-79
2021/11/23 09:06:27;;;;;;;12.60;4.82;;;;;;;6.19;100.00;102571.31;6229207;28;20054;-78
2021/11/23 09:09:31;;;;;;;12.55;5.15;;;;;;;6.21;100.00;102574.75;6229591;28;20065;-79
2021/11/23 09:12:32;;;;;;;10.00;4.80;;;;;;;6.23;100.00;102580.00;6229319;28;20077;-79
2021/11/23 09:15:34;;;;;;;14.15;4.63;;;;;;;6.26;100.00;102574.75;6222033;28;20061;-78
2021/11/23 09:18:35;;;;;;;10.70;5.22;;;;;;;6.33;100.00;102582.53;6221356;28;20050;-78
2021/11/23 09:21:37;;;;;;;11.77;5.13;;;;;;;6.27;100.00;102579.97;6229385;28;20065;-79
2021/11/23 09:24:40;;;;;;;12.05;5.53;;;;;;;6.31;100.00;102584.31;6229515;28;20050;-78
2021/11/23 09:27:42;;;;;;;11.18;4.57;;;;;;;6.32;100.00;102578.19;6230263;28;20054;-78
2021/11/23 09:30:44;;;;;;;11.75;5.68;;;;;;;6.38;100.00;102584.25;6229317;28;20050;-79
2021/11/23 09:33:46;;;;;;;13.45;5.32;;;;;;;6.46;100.00;102583.31;6229146;28;20410;-78
2021/11/23 09:36:47;;;;;;;12.88;4.68;;;;;;;6.53;100.00;102579.78;6228609;28;20050;-79
2021/11/23 09:39:51;;;;;;;11.13;4.50;;;;;;;6.63;100.00;102587.53;6227871;28;20497;-79
2021/11/23 09:42:54;;;;;;;12.15;4.60;;;;;;;6.57;100.00;102585.84;6227354;28;20559;-79
2021/11/23 09:45:55;;;;;;;8.15;3.53;;;;;;;6.64;100.00;102584.09;6227434;28;20056;-78
2021/11/23 09:48:56;;;;;;;12.93;4.68;;;;;;;6.72;100.00;102577.03;6228278;28;20057;-79
2021/11/23 09:51:58;;;;;;;14.02;4.50;;;;;;;6.75;100.00;102574.41;6228068;28;20053;-79
2021/11/23 09:55:02;;;;;;;9.65;4.18;;;;;;;6.82;100.00;102565.66;6227976;28;20133;-79
2021/11/23 09:58:03;;;;;;;13.32;4.72;;;;;;;6.93;100.00;102561.19;6227817;28;20501;-79
2021/11/23 10:01:07;;;;;;;12.05;4.13;;;;;;;6.90;100.00;102569.03;6227529;28;20057;-79
2021/11/23 10:04:08;;;;;;;10.32;4.13;;;;;;;6.97;100.00;102568.13;6227153;28;20485;-78
2021/11/23 10:07:10;;;;;;;8.38;4.50;;;;;;;6.99;100.00;102574.19;6227846;28;20501;-78
2021/11/23 10:10:19;;;;;;;6.15;3.58;;;;;;;6.98;100.00;102568.97;6228434;28;20042;-79
2021/11/23 10:13:22;;;;;;;5.55;2.90;;;;;;;6.89;100.00;102572.53;6227235;28;20405;-79
2021/11/23 10:16:25;;;;;;;9.00;3.22;;;;;;;6.86;100.00;102580.44;6208976;28;20069;-77
2021/11/23 10:19:36;;;;;;;7.32;3.63;;;;;;;6.86;100.00;102583.03;6201829;28;20421;-79
2021/11/23 10:22:39;;;;;;;8.63;3.60;;;;;;;6.82;100.00;102581.31;6202847;28;20049;-78
2021/11/23 10:25:42;;;;;;;10.32;3.67;;;;;;;6.89;100.00;102577.75;6203790;28;20051;-79
2021/11/23 10:28:45;;;;;;;14.70;4.45;;;;;;;6.82;100.00;102582.19;6201184;28;20046;-78
2021/11/23 10:31:47;;;;;;;9.38;3.72;;;;;;;6.83;100.00;102575.22;6202174;28;20134;-79
2021/11/23 10:34:49;;;;;;;7.15;2.90;;;;;;;6.86;100.00;102577.81;6202303;28;20054;-78
2021/11/23 10:37:51;;;;;;;7.32;3.63;;;;;;;6.88;100.00;102568.19;6201468;28;20053;-79
2021/11/23 10:40:55;;;;;;;9.13;4.20;;;;;;;6.88;100.00;102562.09;6201198;28;20057;-78
2021/11/23 10:43:56;;;;;;;8.38;4.20;;;;;;;6.92;100.00;102556.84;6201477;28;20129;-79
2021/11/23 10:47:00;;;;;;;7.70;4.43;;;;;;;7.01;100.00;102554.13;6202993;28;20421;-78
2021/11/23 10:50:05;;;;;;;10.85;5.70;;;;;;;7.10;100.00;102551.44;6203367;28;20058;-79
2021/11/23 10:53:09;;;;;;;29.10;11.73;;;;;;;7.31;100.00;102557.31;6202570;28;20409;-78
2021/11/23 10:56:15;;;;;;;24.00;8.30;;;;;;;7.36;100.00;102558.16;6202548;28;20050;-78
2021/11/23 10:59:16;;;;;;;20.52;8.18;;;;;;;7.36;100.00;102548.56;6204846;28;20046;-79
2021/11/23 11:02:17;;;;;;;15.65;6.78;;;;;;;7.45;100.00;102547.59;6201834;28;20504;-79
2021/11/23 11:05:19;;;;;;;11.07;5.07;;;;;;;7.62;100.00;102544.75;6201108;28;20055;-78
2021/11/23 11:08:22;;;;;;;11.65;6.30;;;;;;;7.87;100.00;102545.31;6203086;28;20050;-79
2021/11/23 11:11:25;;;;;;;11.23;4.05;;;;;;;8.04;100.00;102548.59;6206266;28;20136;-80
2021/11/23 11:14:31;;;;;;;14.50;4.07;;;;;;;7.91;100.00;102548.78;6209454;28;20058;-79
2021/11/23 11:17:36;;;;;;;7.00;3.47;;;;;;;7.76;100.00;102537.59;6233440;28;20188;-79
2021/11/23 11:20:42;;;;;;;8.30;4.00;;;;;;;7.63;100.00;102541.28;6231751;28;20054;-79
2021/11/23 11:23:45;;;;;;;6.78;3.00;;;;;;;7.57;100.00;102542.19;6223183;28;20515;-79
2021/11/23 11:26:53;;;;;;;7.13;3.33;;;;;;;7.56;100.00;102542.22;6208637;28;20053;-79
2021/11/23 11:29:55;;;;;;;7.78;3.33;;;;;;;7.60;100.00;102543.91;6208412;28;20057;-79
2021/11/23 11:33:11;;;;;;;6.05;2.83;;;;;;;7.75;100.00;102537.63;6207766;28;20486;-79
2021/11/23 11:36:40;;;;;;;7.45;3.17;;;;;;;7.73;100.00;102547.25;6207605;28;20046;-78
2021/11/23 11:39:58;;;;;;;4.65;2.95;;;;;;;7.74;100.00;102541.13;6207762;28;20421;-80
2021/11/23 11:43:03;;;;;;;5.97;2.50;;;;;;;7.82;100.00;102534.91;6207871;28;20438;-79
2021/11/23 11:46:05;;;;;;;6.53;2.75;;;;;;;7.85;100.00;102534.84;6221784;28;20501;-79
2021/11/23 11:49:07;;;;;;;4.05;2.28;;;;;;;7.92;100.00;102540.03;6226981;28;20046;-78
2021/11/23 11:52:08;;;;;;;7.28;2.45;;;;;;;7.95;100.00;102542.59;6225571;28;20050;-79
2021/11/23 11:55:18;;;;;;;5.70;2.78;;;;;;;7.88;100.00;102529.59;6226128;28;20050;-78
2021/11/23 11:58:45;;;;;;;3.58;2.35;;;;;;;7.88;100.00;102532.22;6225653;28;20420;-79
2021/11/23 12:01:51;;;;;;;9.85;2.83;;;;;;;7.91;100.00;102533.06;6225431;28;20054;-77
2021/11/23 12:04:59;;;;;;;5.25;2.25;;;;;;;7.98;100.00;102530.31;6226098;28;20050;-78
2021/11/23 12:08:21;;;;;;;4.72;2.38;;;;;;;8.14;100.00;102521.38;6228145;28;20460;-79
2021/11/23 12:11:29;;;;;;;5.53;2.30;;;;;;;8.31;100.00;102522.84;6231683;28;20113;-79
2021/11/23 12:14:40;;;;;;;3.33;2.08;;;;;;;8.36;100.00;102526.31;6229292;28;20046;-79
2021/11/23 12:18:01;;;;;;;6.30;2.78;;;;;;;8.23;100.00;102523.00;6225666;28;20490;-79
2021/11/23 12:21:09;;;;;;;7.88;3.00;;;;;;;8.23;100.00;102514.28;6224842;28;20049;-79
2021/11/23 12:24:11;;;;;;;6.55;2.78;;;;;;;8.26;100.00;102517.69;6227245;28;20485;-79
2021/11/23 12:27:17;;;;;;;7.18;2.65;;;;;;;8.25;100.00;102510.72;6225882;28;20058;-79
2021/11/23 12:30:21;;;;;;;4.40;2.60;;;;;;;8.36;100.00;102510.59;6225340;28;20143;-79
2021/11/23 12:33:23;;;;;;;11.88;4.07;;;;;;;8.41;100.00;102511.41;6235106;28;20481;-79
2021/11/23 12:36:25;;;;;;;3.50;2.22;;;;;;;8.47;100.00;102516.53;6227802;28;20053;-79
2021/11/23 12:39:34;;;;;;;5.32;2.47;;;;;;;8.39;100.00;102507.94;6229463;28;20042;-79
2021/11/23 12:42:40;;;;;;;3.90;2.10;;;;;;;8.33;100.00;102513.25;6231180;28;20046;-79
2021/11/23 12:45:46;;;;;;;8.05;2.70;;;;;;;8.28;100.00;102523.78;6228050;28;20054;-80
2021/11/23 12:48:51;;;;;;;4.25;2.13;;;;;;;8.25;100.00;102512.50;6231952;28;20061;-79
2021/11/23 12:51:58;;;;;;;11.20;2.53;;;;;;;8.21;100.00;102508.19;6231921;28;20050;-79
2021/11/23 12:55:02;;;;;;;8.55;2.47;;;;;;;8.11;100.00;102505.69;6230391;28;20056;-79
2021/11/23 12:58:04;;;;;;;4.35;2.25;;;;;;;8.08;100.00;102515.34;6230377;28;20053;-79
2021/11/23 13:01:07;;;;;;;6.70;3.30;;;;;;;8.01;100.00;102516.34;6228017;28;20050;-78
2021/11/23 13:04:09;;;;;;;6.28;3.05;;;;;;;7.91;100.00;102523.47;6224493;28;20417;-77
2021/11/23 13:07:11;;;;;;;3.60;2.05;;;;;;;7.73;100.00;102511.47;6230592;28;20409;-77
2021/11/23 13:10:15;;;;;;;6.50;3.22;;;;;;;7.57;100.00;102510.78;6226845;28;20050;-77
2021/11/23 13:13:22;;;;;;;4.40;2.40;;;;;;;7.46;100.00;102517.06;6224053;28;20046;-77
2021/11/23 13:16:24;;;;;;;7.60;3.45;;;;;;;7.44;100.00;102527.53;6214247;28;20054;-77
2021/11/23 13:19:25;;;;;;;4.95;2.58;;;;;;;7.48;100.00;102517.91;6199402;28;20516;-77
2021/11/23 13:22:27;;;;;;;4.03;2.63;;;;;;;7.50;100.00;102510.91;6199503;28;20053;-77
2021/11/23 13:25:30;;;;;;;6.13;2.95;;;;;;;7.54;100.00;102516.09;6199192;28;20050;-77
2021/11/23 13:28:34;;;;;;;6.25;2.90;;;;;;;7.56;100.00;102510.81;6199560;28;20050;-77
2021/11/23 13:31:39;;;;;;;9.43;3.00;;;;;;;7.58;100.00;102509.91;6199059;28;20050;-77
2021/11/23 13:34:41;;;;;;;6.95;3.10;;;;;;;7.61;100.00;102514.25;6199146;28;20137;-77
2021/11/23 13:37:43;;;;;;;5.90;2.60;;;;;;;7.60;100.00;102509.91;6199028;28;20383;-78
2021/11/23 13:40:44;;;;;;;2.97;1.88;;;;;;;7.60;100.00;102502.91;6198734;28;20058;-78
2021/11/23 13:43:47;;;;;;;8.45;3.15;;;;;;;7.61;100.00;102495.94;6198974;28;20057;-77
2021/11/23 13:46:53;;;;;;;4.70;2.45;;;;;;;7.59;100.00;102508.19;6213237;28;20556;-77
2021/11/23 13:50:05;;;;;;;8.15;2.53;;;;;;;7.62;100.00;102501.13;6222859;28;20085;-78
2021/11/23 13:53:06;;;;;;;7.25;4.07;;;;;;;7.61;100.00;102502.03;6223142;28;20049;-77
2021/11/23 13:56:12;;;;;;;6.68;3.58;;;;;;;7.65;100.00;102504.63;6222964;28;20061;-77
2021/11/23 13:59:16;;;;;;;6.43;4.30;;;;;;;7.67;100.00;102500.22;6222746;28;20432;-77
2021/11/23 14:02:19;;;;;;;5.32;2.55;;;;;;;7.66;100.00;102496.72;6222065;28;20145;-77
2021/11/23 14:05:40;;;;;;;3.58;2.40;;;;;;;7.65;100.00;102502.00;6222847;28;20046;-77
2021/11/23 14:08:41;;;;;;;6.65;2.85;;;;;;;7.65;100.00;102499.38;6222886;28;20061;-77